Time;durP1;ratioP1;P1;durP2;ratioP2;P2;SDS_P1;SDS_P2;PMS_P1;PMS_P2;Temp;Humidity;BMP_temperature;BMP_pressure;BME280_temperature;BME280_humidity;BME280_pressure;Samples;Min_cycle;Max_cycle;Signal;HPM_P1;HPM_P2
2021/08/26 00:00:17;;;;;;;;;;;;;;;16.36;91.97;101606.91;5060828;28;19971;-48
2021/08/26 00:05:50;;;;;;;;;;;;;;;16.44;91.71;101593.03;5058625;28;20449;-47
2021/08/26 00:08:18;;;;;;;;;;;;;;;16.48;92.08;101588.34;5076840;28;19928;-46
2021/08/26 00:10:44;;;;;;;;;;;;;;;16.40;91.97;101599.53;5062670;28;19936;-45
2021/08/26 00:13:11;;;;;;;;;;;;;;;16.42;92.38;101592.31;5044544;28;19944;-43
2021/08/26 00:15:46;;;;;;;;;;;;;;;16.41;92.34;101587.13;5063138;28;19932;-45
2021/08/26 00:18:13;;;;;;;;;;;;;;;16.42;92.33;101594.13;5062670;28;20006;-43
2021/08/26 00:20:41;;;;;;;;;;;;;;;16.45;92.56;101596.53;5044200;28;19948;-42
2021/08/26 00:23:07;;;;;;;;;;;;;;;16.41;93.15;101587.97;5062993;28;19980;-44
2021/08/26 00:25:36;;;;;;;;;;;;;;;16.37;93.08;101582.06;5060516;28;19932;-46
2021/08/26 00:28:02;;;;;;;;;;;;;;;16.43;93.25;101579.88;5062698;28;19925;-49
2021/08/26 00:30:29;;;;;;;;;;;;;;;16.29;93.05;101573.88;5059039;28;19932;-48
2021/08/26 00:32:56;;;;;;;;;;;;;;;16.35;93.30;101565.41;5063043;28;19928;-46
2021/08/26 00:35:22;;;;;;;;;;;;;;;16.35;93.35;101572.53;5040773;28;19929;-52
2021/08/26 00:37:49;;;;;;;;;;;;;;;16.42;93.23;101567.59;5060887;28;20003;-51
2021/08/26 00:40:16;;;;;;;;;;;;;;;16.42;93.21;101570.25;5060559;28;19932;-46
2021/08/26 00:42:42;;;;;;;;;;;;;;;16.37;91.77;101555.53;5061220;28;19933;-44
2021/08/26 00:45:09;;;;;;;;;;;;;;;16.32;91.91;101551.53;5062598;28;19936;-45
2021/08/26 00:47:36;;;;;;;;;;;;;;;16.37;91.77;101552.88;5042818;28;19932;-48
2021/08/26 00:50:03;;;;;;;;;;;;;;;16.32;92.16;101547.06;5042806;28;19971;-44
2021/08/26 00:52:30;;;;;;;;;;;;;;;16.34;92.18;101544.28;5042687;28;19928;-44
2021/08/26 00:54:57;;;;;;;;;;;;;;;16.34;91.88;101545.13;5063685;28;19939;-47
2021/08/26 00:57:24;;;;;;;;;;;;;;;16.34;91.70;101539.81;5041636;28;20435;-42
2021/08/26 00:59:52;;;;;;;;;;;;;;;16.36;91.61;101532.59;5065711;28;19983;-47
2021/08/26 01:02:34;;;;;;;;;;;;;;;16.37;91.07;101534.28;5043358;28;19967;-44
2021/08/26 01:05:21;;;;;;;;;;;;;;;16.38;91.29;101545.75;5058446;28;20028;-47
2021/08/26 01:07:54;;;;;;;;;;;;;;;16.48;91.22;101538.72;5062255;28;20410;-45
2021/08/26 01:10:20;;;;;;;;;;;;;;;16.50;90.31;101536.81;5042350;28;19971;-46
2021/08/26 01:12:47;;;;;;;;;;;;;;;16.38;91.19;101529.81;5059357;28;19925;-48
2021/08/26 01:15:14;;;;;;;;;;;;;;;16.46;90.89;101529.22;5051229;28;19933;-47
2021/08/26 01:17:44;;;;;;;;;;;;;;;16.50;90.91;101528.84;5051042;28;19925;-43
2021/08/26 01:20:11;;;;;;;;;;;;;;;16.60;91.46;101520.97;5038701;28;19932;-47
2021/08/26 01:22:37;;;;;;;;;;;;;;;16.61;91.66;101514.72;5056868;28;20012;-43
2021/08/26 01:25:05;;;;;;;;;;;;;;;16.65;91.20;101516.16;5042596;28;20004;-46
2021/08/26 01:27:33;;;;;;;;;;;;;;;16.63;90.77;101520.72;5057148;28;19933;-46
2021/08/26 01:30:01;;;;;;;;;;;;;;;16.67;91.10;101524.00;5062827;28;21805;-49
2021/08/26 01:32:28;;;;;;;;;;;;;;;16.68;91.41;101528.34;5044605;28;20415;-50
2021/08/26 01:34:55;;;;;;;;;;;;;;;16.46;91.33;101516.78;5060333;28;19925;-52
2021/08/26 01:37:22;;;;;;;;;;;;;;;16.42;90.95;101520.66;5058591;28;19960;-51
2021/08/26 01:39:49;;;;;;;;;;;;;;;16.42;90.79;101520.66;5064492;28;19970;-51
2021/08/26 01:42:16;;;;;;;;;;;;;;;16.42;90.48;101515.34;5042611;28;19970;-51
2021/08/26 01:44:43;;;;;;;;;;;;;;;16.28;91.23;101518.22;5061162;28;19978;-51
2021/08/26 01:47:16;;;;;;;;;;;;;;;16.14;91.52;101528.13;5070106;28;19999;-50
2021/08/26 01:49:43;;;;;;;;;;;;;;;16.18;91.23;101523.41;5041796;28;19971;-49
2021/08/26 01:52:10;;;;;;;;;;;;;;;16.12;89.95;101524.75;5064181;28;20368;-51
2021/08/26 01:54:37;;;;;;;;;;;;;;;16.21;90.10;101512.56;5067628;28;20011;-50
2021/08/26 01:57:04;;;;;;;;;;;;;;;16.21;89.75;101512.56;5046241;28;19932;-52
2021/08/26 01:59:32;;;;;;;;;;;;;;;16.13;89.41;101526.44;5063979;28;20393;-50
2021/08/26 02:01:58;;;;;;;;;;;;;;;16.15;89.21;101524.50;5062168;28;19925;-52
2021/08/26 02:04:25;;;;;;;;;;;;;;;16.17;88.72;101524.38;5064783;28;19936;-54
2021/08/26 02:06:52;;;;;;;;;;;;;;;16.10;88.11;101529.34;5067105;28;20171;-53
2021/08/26 02:09:18;;;;;;;;;;;;;;;16.09;89.01;101534.75;5061171;28;19925;-51
2021/08/26 02:11:45;;;;;;;;;;;;;;;16.08;88.65;101531.25;5062500;28;19929;-51
2021/08/26 02:14:12;;;;;;;;;;;;;;;15.95;88.33;101527.84;5064544;28;19978;-52
2021/08/26 02:16:38;;;;;;;;;;;;;;;15.94;87.88;101519.06;5066901;28;20330;-50
2021/08/26 02:19:05;;;;;;;;;;;;;;;15.84;88.60;101526.91;5047579;28;19932;-53
2021/08/26 02:21:31;;;;;;;;;;;;;;;15.79;88.33;101520.19;5063545;28;19979;-51
2021/08/26 02:23:58;;;;;;;;;;;;;;;15.75;87.73;101522.25;5043402;28;19928;-51
2021/08/26 02:26:25;;;;;;;;;;;;;;;15.74;87.03;101525.84;5064434;28;19928;-52
2021/08/26 02:28:52;;;;;;;;;;;;;;;15.70;87.55;101524.41;5061768;28;19970;-52
2021/08/26 02:31:18;;;;;;;;;;;;;;;15.71;88.14;101524.28;5063134;28;20296;-52
2021/08/26 02:33:45;;;;;;;;;;;;;;;15.72;87.30;101522.50;5063761;28;19932;-53
2021/08/26 02:36:12;;;;;;;;;;;;;;;15.69;87.48;101515.63;5060972;28;19980;-49
2021/08/26 02:38:38;;;;;;;;;;;;;;;15.67;87.21;101525.47;5062826;28;19928;-53
2021/08/26 02:41:05;;;;;;;;;;;;;;;15.70;88.27;101522.59;5060237;28;19925;-49
2021/08/26 02:43:32;;;;;;;;;;;;;;;15.70;87.27;101525.25;5062633;28;19939;-52
2021/08/26 02:45:58;;;;;;;;;;;;;;;15.64;87.36;101525.72;5064564;28;19925;-51
2021/08/26 02:48:25;;;;;;;;;;;;;;;15.68;87.99;101521.03;5065903;28;19925;-50
2021/08/26 02:50:52;;;;;;;;;;;;;;;15.75;88.59;101527.56;5064632;28;19982;-50
2021/08/26 02:53:18;;;;;;;;;;;;;;;15.60;85.88;101528.69;5063090;28;19924;-52
2021/08/26 02:55:45;;;;;;;;;;;;;;;15.66;86.39;101522.94;5052926;28;19952;-50
2021/08/26 02:58:12;;;;;;;;;;;;;;;15.70;86.60;101525.25;5044506;28;20307;-50
2021/08/26 03:00:38;;;;;;;;;;;;;;;15.68;86.62;101521.88;5042516;28;19939;-50
2021/08/26 03:03:05;;;;;;;;;;;;;;;15.56;87.44;101525.47;5053927;28;19929;-50
2021/08/26 03:05:32;;;;;;;;;;;;;;;15.40;87.47;101515.16;5061311;28;19925;-49
2021/08/26 03:07:59;;;;;;;;;;;;;;;15.55;87.55;101518.47;5049349;28;19939;-52
2021/08/26 03:10:26;;;;;;;;;;;;;;;15.57;86.87;101516.56;5059855;28;20379;-53
2021/08/26 03:12:53;;;;;;;;;;;;;;;15.55;87.45;101518.47;5062816;28;20345;-53
2021/08/26 03:15:20;;;;;;;;;;;;;;;15.45;87.67;101513.00;5046896;28;19987;-48
2021/08/26 03:17:46;;;;;;;;;;;;;;;15.46;87.68;101516.50;5066213;28;19924;-53
2021/08/26 03:20:13;;;;;;;;;;;;;;;15.33;87.04;101516.59;5075099;28;20646;-51
2021/08/26 03:22:40;;;;;;;;;;;;;;;15.24;87.19;101507.50;5078654;28;20015;-51
2021/08/26 03:25:07;;;;;;;;;;;;;;;15.32;86.55;101510.41;5077227;28;19977;-52
2021/08/26 03:27:33;;;;;;;;;;;;;;;15.26;86.64;101500.28;5060289;28;19928;-50
2021/08/26 03:30:00;;;;;;;;;;;;;;;15.22;85.75;101493.53;5095486;28;19928;-50
2021/08/26 03:32:26;;;;;;;;;;;;;;;15.22;86.74;101506.78;5094778;28;19924;-51
2021/08/26 03:34:53;;;;;;;;;;;;;;;15.23;85.99;101500.53;5090539;28;20371;-53
2021/08/26 03:37:20;;;;;;;;;;;;;;;15.14;86.44;101496.75;5074381;28;19925;-54
2021/08/26 03:39:46;;;;;;;;;;;;;;;15.10;86.60;101502.41;5074294;28;19954;-53
2021/08/26 03:42:13;;;;;;;;;;;;;;;15.09;86.47;101506.00;5056273;28;19928;-54
2021/08/26 03:44:40;;;;;;;;;;;;;;;15.12;86.46;101501.31;5074235;28;19977;-53
2021/08/26 03:47:06;;;;;;;;;;;;;;;15.20;86.53;101503.38;5064423;28;19948;-53
2021/08/26 03:49:33;;;;;;;;;;;;;;;15.20;86.73;101503.38;5059989;28;20330;-52
2021/08/26 03:52:00;;;;;;;;;;;;;;;15.07;86.00;101505.28;5064358;28;20626;-53
2021/08/26 03:54:26;;;;;;;;;;;;;;;15.09;85.13;101492.75;5066106;28;19969;-52
2021/08/26 03:56:53;;;;;;;;;;;;;;;15.07;85.36;101492.03;5073930;28;19960;-53
2021/08/26 03:59:19;;;;;;;;;;;;;;;15.02;85.59;101492.34;5076498;28;19924;-54
2021/08/26 04:01:46;;;;;;;;;;;;;;;15.09;85.70;101492.75;5073972;28;19924;-52
2021/08/26 04:04:13;;;;;;;;;;;;;;;15.05;86.17;101492.13;5073909;28;19964;-53
2021/08/26 04:06:40;;;;;;;;;;;;;;;15.09;86.39;101495.41;5073211;28;19951;-51
2021/08/26 04:09:06;;;;;;;;;;;;;;;15.11;86.46;101489.03;5074018;28;20375;-53
2021/08/26 04:11:33;;;;;;;;;;;;;;;15.10;87.47;101489.16;5073861;28;19929;-52
2021/08/26 04:13:59;;;;;;;;;;;;;;;15.03;87.83;101486.94;5073843;28;20019;-54
2021/08/26 04:16:26;;;;;;;;;;;;;;;14.96;86.47;101483.06;5073788;28;19925;-53
2021/08/26 04:18:53;;;;;;;;;;;;;;;14.94;87.49;101484.97;5055992;28;19929;-54
2021/08/26 04:21:19;;;;;;;;;;;;;;;15.00;87.07;101489.00;5079852;28;19977;-52
2021/08/26 04:23:46;;;;;;;;;;;;;;;15.03;87.44;101494.06;5075395;28;20288;-52
2021/08/26 04:26:12;;;;;;;;;;;;;;;15.04;87.92;101485.16;5055731;28;19925;-54
2021/08/26 04:28:39;;;;;;;;;;;;;;;15.07;87.94;101494.69;5073439;28;20283;-54
2021/08/26 04:31:06;;;;;;;;;;;;;;;14.96;87.02;101482.22;5073725;28;19970;-54
2021/08/26 04:33:32;;;;;;;;;;;;;;;14.94;86.52;101479.66;5073438;28;19978;-55
2021/08/26 04:35:59;;;;;;;;;;;;;;;14.90;86.68;101474.72;5073706;28;19934;-54
2021/08/26 04:38:25;;;;;;;;;;;;;;;14.90;88.15;101475.56;5075582;28;20448;-54
2021/08/26 04:40:52;;;;;;;;;;;;;;;14.87;86.77;101474.00;5082617;28;19932;-55
2021/08/26 04:43:19;;;;;;;;;;;;;;;14.94;86.89;101465.59;5081947;28;19970;-55
2021/08/26 04:45:45;;;;;;;;;;;;;;;14.91;87.10;101471.97;5063124;28;20326;-53
2021/08/26 04:48:12;;;;;;;;;;;;;;;14.83;86.47;101476.97;5080905;28;20363;-53
2021/08/26 04:50:39;;;;;;;;;;;;;;;14.93;86.80;101474.50;5069535;28;19925;-52
2021/08/26 04:53:05;;;;;;;;;;;;;;;14.92;87.05;101481.59;5084538;28;20403;-52
2021/08/26 04:55:32;;;;;;;;;;;;;;;14.88;86.51;101470.38;5079279;28;20305;-52
2021/08/26 04:57:59;;;;;;;;;;;;;;;14.74;86.96;101461.75;5076603;28;19925;-52
2021/08/26 05:00:25;;;;;;;;;;;;;;;14.78;87.12;101466.72;5072975;28;19961;-53
2021/08/26 05:02:52;;;;;;;;;;;;;;;14.76;87.35;101465.97;5073640;28;19925;-53
2021/08/26 05:05:19;;;;;;;;;;;;;;;14.68;87.19;101465.69;5077852;28;19959;-54
2021/08/26 05:07:45;;;;;;;;;;;;;;;14.83;87.70;101469.91;5072875;28;20440;-53
2021/08/26 05:10:12;;;;;;;;;;;;;;;14.69;87.37;101468.22;5073068;28;19925;-54
2021/08/26 05:12:39;;;;;;;;;;;;;;;14.70;87.21;101467.28;5072802;28;19926;-54
2021/08/26 05:15:06;;;;;;;;;;;;;;;14.66;87.20;101464.97;5072872;28;19946;-55
2021/08/26 05:17:32;;;;;;;;;;;;;;;14.78;87.70;101473.81;5054657;28;19925;-54
2021/08/26 05:19:59;;;;;;;;;;;;;;;14.79;87.27;101470.22;5076702;28;19978;-54
2021/08/26 05:22:25;;;;;;;;;;;;;;;14.79;87.49;101470.22;5084049;28;20367;-53
2021/08/26 05:24:52;;;;;;;;;;;;;;;14.81;87.36;101485.03;5079529;28;19924;-53
2021/08/26 05:27:19;;;;;;;;;;;;;;;14.81;87.00;101478.91;5075265;28;19932;-51
2021/08/26 05:29:45;;;;;;;;;;;;;;;14.72;87.03;101487.50;5054976;28;19963;-51
2021/08/26 05:32:12;;;;;;;;;;;;;;;14.79;87.57;101480.81;5073017;28;19932;-52
2021/08/26 05:34:41;;;;;;;;;;;;;;;14.87;89.10;101478.44;5072678;28;19960;-50
2021/08/26 05:37:08;;;;;;;;;;;;;;;14.97;88.47;101470.66;5072469;28;19936;-52
2021/08/26 05:39:35;;;;;;;;;;;;;;;15.00;88.11;101473.94;5038266;28;19924;-49
2021/08/26 05:42:02;;;;;;;;;;;;;;;15.01;87.82;101469.47;5072872;28;19928;-51
2021/08/26 05:44:29;;;;;;;;;;;;;;;15.10;87.24;101474.09;5072405;28;19925;-52
2021/08/26 05:46:55;;;;;;;;;;;;;;;15.09;86.67;101463.63;5072609;28;19932;-51
2021/08/26 05:49:22;;;;;;;;;;;;;;;15.12;87.16;101480.13;5071838;28;19925;-52
2021/08/26 05:51:48;;;;;;;;;;;;;;;15.14;85.64;101474.72;5071656;28;19924;-53
2021/08/26 05:54:15;;;;;;;;;;;;;;;15.14;86.81;101480.03;5055013;28;19924;-53
2021/08/26 05:56:42;;;;;;;;;;;;;;;15.12;85.66;101473.97;5062123;28;19932;-52
2021/08/26 05:59:08;;;;;;;;;;;;;;;15.09;86.00;101471.56;5082040;28;19985;-46
2021/08/26 06:01:35;;;;;;;;;;;;;;;15.14;86.25;101466.78;5079841;28;19978;-47
2021/08/26 06:04:02;;;;;;;;;;;;;;;15.16;86.75;101467.50;5082166;28;20015;-47
2021/08/26 06:06:29;;;;;;;;;;;;;;;15.17;85.64;101471.84;5078742;28;19932;-48
2021/08/26 06:08:55;;;;;;;;;;;;;;;15.17;86.05;101478.00;5080108;28;19935;-46
2021/08/26 06:11:22;;;;;;;;;;;;;;;15.16;85.09;101478.94;5079165;28;19924;-45
2021/08/26 06:13:49;;;;;;;;;;;;;;;15.21;83.98;101470.66;5079561;28;19963;-43
2021/08/26 06:16:15;;;;;;;;;;;;;;;15.34;84.46;101476.72;5082702;28;20006;-47
2021/08/26 06:18:42;;;;;;;;;;;;;;;15.19;84.10;101475.22;5061230;28;20391;-44
2021/08/26 06:21:10;;;;;;;;;;;;;;;15.14;83.95;101464.97;5063931;28;20295;-48
2021/08/26 06:23:37;;;;;;;;;;;;;;;15.18;84.41;101473.53;5061231;28;19928;-46
2021/08/26 06:26:03;;;;;;;;;;;;;;;15.22;83.48;101475.00;5080430;28;20009;-47
2021/08/26 06:28:30;;;;;;;;;;;;;;;15.30;83.51;101472.59;5078436;28;19931;-46
2021/08/26 06:30:57;;;;;;;;;;;;;;;15.32;83.23;101483.09;5082265;28;19978;-48
2021/08/26 06:33:23;;;;;;;;;;;;;;;15.31;85.66;101487.56;5085657;28;20425;-44
2021/08/26 06:35:50;;;;;;;;;;;;;;;15.31;85.56;101482.25;5084498;28;19954;-47
2021/08/26 06:38:17;;;;;;;;;;;;;;;15.42;86.36;101472.63;5086641;28;20416;-44
2021/08/26 06:40:43;;;;;;;;;;;;;;;15.53;86.04;101480.63;5066353;28;19989;-43
2021/08/26 06:43:10;;;;;;;;;;;;;;;15.63;87.00;101475.47;5079334;28;19924;-44
2021/08/26 06:45:37;;;;;;;;;;;;;;;15.68;86.17;101474.16;5077931;28;19924;-44
2021/08/26 06:48:03;;;;;;;;;;;;;;;15.70;86.57;101466.91;5082640;28;19924;-48
2021/08/26 06:50:30;;;;;;;;;;;;;;;15.68;85.60;101473.31;5088081;28;19925;-47
2021/08/26 06:52:57;;;;;;;;;;;;;;;15.63;85.73;101471.00;5082006;28;19924;-46
2021/08/26 06:55:23;;;;;;;;;;;;;;;15.64;85.96;101477.16;5075216;28;19928;-48
2021/08/26 06:57:50;;;;;;;;;;;;;;;15.76;85.11;101475.34;5075180;28;19955;-50
2021/08/26 07:00:17;;;;;;;;;;;;;;;15.74;83.86;101478.13;5074785;28;19982;-47
2021/08/26 07:02:44;;;;;;;;;;;;;;;15.85;85.12;101474.69;5076274;28;19928;-46
2021/08/26 07:05:12;;;;;;;;;;;;;;;15.87;85.65;101481.56;5095259;28;19932;-46
2021/08/26 07:07:38;;;;;;;;;;;;;;;15.81;82.57;101475.88;5080153;28;19931;-47
2021/08/26 07:10:05;;;;;;;;;;;;;;;15.67;84.46;101484.88;5084695;28;19967;-47
2021/08/26 07:12:32;;;;;;;;;;;;;;;15.65;86.90;101486.78;5077731;28;19924;-44
2021/08/26 07:14:59;;;;;;;;;;;;;;;15.60;86.56;101484.50;5078744;28;20345;-51
2021/08/26 07:17:26;;;;;;;;;;;;;;;15.56;85.34;101477.75;5085063;28;19932;-49
2021/08/26 07:19:52;;;;;;;;;;;;;;;15.62;86.84;101481.72;5047968;28;19924;-49
2021/08/26 07:22:19;;;;;;;;;;;;;;;15.59;85.00;101477.50;5084627;28;19960;-52
2021/08/26 07:24:46;;;;;;;;;;;;;;;15.68;84.21;101478.63;5085404;28;19978;-50
2021/08/26 07:27:13;;;;;;;;;;;;;;;15.78;86.58;101481.41;5083461;28;19931;-51
2021/08/26 07:29:39;;;;;;;;;;;;;;;15.89;85.49;101482.28;5084015;28;19928;-45
2021/08/26 07:32:06;;;;;;;;;;;;;;;16.11;84.93;101474.47;5081982;28;19931;-44
2021/08/26 07:34:32;;;;;;;;;;;;;;;16.29;86.63;101480.97;5082219;28;20336;-46
2021/08/26 07:36:59;;;;;;;;;;;;;;;16.29;84.38;101475.66;5046367;28;19928;-45
2021/08/26 07:39:26;;;;;;;;;;;;;;;16.14;81.46;101469.75;5082488;28;19925;-47
2021/08/26 07:41:52;;;;;;;;;;;;;;;16.06;81.90;101472.19;5080964;28;20010;-45
2021/08/26 07:44:19;;;;;;;;;;;;;;;16.11;81.42;101479.75;5065452;28;19970;-45
2021/08/26 07:46:45;;;;;;;;;;;;;;;16.01;82.06;101471.69;5082808;28;19924;-45
2021/08/26 07:49:12;;;;;;;;;;;;;;;15.97;81.54;101483.50;5082055;28;19924;-53
2021/08/26 07:51:39;;;;;;;;;;;;;;;16.00;82.38;101484.09;5085323;28;20420;-53
2021/08/26 07:54:06;;;;;;;;;;;;;;;16.03;82.11;101489.19;5079642;28;19924;-52
2021/08/26 07:56:32;;;;;;;;;;;;;;;16.05;82.02;101481.94;5085786;28;19928;-51
2021/08/26 07:58:59;;;;;;;;;;;;;;;16.12;82.34;101484.13;5075293;28;19925;-51
2021/08/26 08:01:25;;;;;;;;;;;;;;;15.95;82.75;101486.28;5074083;28;20458;-53
2021/08/26 08:03:53;;;;;;;;;;;;;;;16.07;83.92;101479.16;5079678;28;20395;-51
2021/08/26 08:06:19;;;;;;;;;;;;;;;16.28;84.48;101478.41;5065951;28;19932;-54
2021/08/26 08:08:46;;;;;;;;;;;;;;;16.22;82.39;101477.09;5060022;28;20314;-53
2021/08/26 08:11:12;;;;;;;;;;;;;;;16.41;83.52;101475.66;5077584;28;19925;-45
2021/08/26 08:14:01;;;;;;;;;;;;;;;16.47;82.37;101465.38;5078265;28;19929;-48
2021/08/26 08:16:28;;;;;;;;;;;;;;;16.91;83.28;101478.69;5082079;28;19928;-48
2021/08/26 08:18:54;;;;;;;;;;;;;;;16.90;81.07;101479.66;5074018;28;19929;-49
2021/08/26 08:21:21;;;;;;;;;;;;;;;16.81;80.74;101472.41;5081769;28;19963;-51
2021/08/26 08:23:47;;;;;;;;;;;;;;;16.81;80.50;101472.41;5093886;28;19924;-53
2021/08/26 08:26:14;;;;;;;;;;;;;;;16.80;79.59;101476.06;5073602;28;19929;-52
2021/08/26 08:28:41;;;;;;;;;;;;;;;16.93;80.38;101474.09;5043613;28;19925;-51
2021/08/26 08:31:07;;;;;;;;;;;;;;;17.10;80.05;101471.84;5069155;28;19924;-53
2021/08/26 08:33:35;;;;;;;;;;;;;;;17.26;79.97;101469.63;5092962;28;19935;-44
2021/08/26 08:36:02;;;;;;;;;;;;;;;17.66;78.49;101463.56;5087806;28;19955;-50
2021/08/26 08:38:29;;;;;;;;;;;;;;;17.69;78.42;101470.44;5073619;28;20799;-50
2021/08/26 08:40:55;;;;;;;;;;;;;;;17.49;75.24;101472.13;5055726;28;19974;-48
2021/08/26 08:43:22;;;;;;;;;;;;;;;17.39;78.12;101461.44;5073678;28;19931;-50
2021/08/26 08:45:49;;;;;;;;;;;;;;;17.93;77.34;101461.34;5091726;28;19985;-47
2021/08/26 08:48:16;;;;;;;;;;;;;;;17.96;75.08;101463.78;5069406;28;20025;-49
2021/08/26 08:50:44;;;;;;;;;;;;;;;18.03;76.27;101455.09;5055546;28;19924;-48
2021/08/26 08:53:14;;;;;;;;;;;;;;;18.08;74.95;101460.03;5072682;28;19925;-48
2021/08/26 08:55:42;;;;;;;;;;;;;;;18.00;75.00;101462.53;5066992;28;20273;-49
2021/08/26 08:58:09;;;;;;;;;;;;;;;17.80;74.58;101454.41;5055383;28;19924;-48
2021/08/26 09:00:36;;;;;;;;;;;;;;;17.79;74.17;101462.53;5053182;28;20022;-49
2021/08/26 09:03:03;;;;;;;;;;;;;;;17.56;74.08;101462.66;5078110;28;19924;-48
2021/08/26 09:05:48;;;;;;;;;;;;;;;17.65;74.92;101456.56;5060912;28;19928;-49
2021/08/26 09:08:16;;;;;;;;;;;;;;;17.71;74.10;101450.72;5070612;28;20353;-47
2021/08/26 09:10:43;;;;;;;;;;;;;;;17.93;74.18;101459.56;5055149;28;19932;-50
2021/08/26 09:13:09;;;;;;;;;;;;;;;17.78;73.83;101456.38;5069909;28;20292;-50
2021/08/26 09:15:36;;;;;;;;;;;;;;;17.87;73.33;101463.56;5040722;28;19925;-48
2021/08/26 09:18:16;;;;;;;;;;;;;;;18.07;73.36;101451.19;5046748;28;20387;-50
2021/08/26 09:20:54;;;;;;;;;;;;;;;18.44;72.40;101456.91;5039424;28;19935;-48
2021/08/26 09:23:24;;;;;;;;;;;;;;;18.47;71.86;101446.81;5078969;28;19974;-49
2021/08/26 09:25:52;;;;;;;;;;;;;;;18.51;72.07;101444.72;5074798;28;20378;-44
2021/08/26 09:28:36;;;;;;;;;;;;;;;18.48;71.34;101455.66;5067122;28;19948;-46
2021/08/26 09:31:32;;;;;;;;;;;;;;;18.47;73.92;101456.63;5052915;28;19932;-49
2021/08/26 09:34:00;;;;;;;;;;;;;;;18.33;76.58;101449.88;5055970;28;19924;-44
2021/08/26 09:36:31;;;;;;;;;;;;;;;17.87;74.75;101441.41;5092915;28;19924;-46
2021/08/26 09:39:03;;;;;;;;;;;;;;;17.93;76.63;101448.91;5091293;28;19924;-55
2021/08/26 09:41:36;;;;;;;;;;;;;;;18.03;75.19;101449.78;5073489;28;19930;-46
2021/08/26 09:44:06;;;;;;;;;;;;;;;17.96;77.20;101451.28;5092846;28;20015;-49
2021/08/26 09:46:33;;;;;;;;;;;;;;;18.01;76.38;101450.88;5057705;28;19932;-45
2021/08/26 09:49:04;;;;;;;;;;;;;;;18.07;75.70;101450.34;5073687;28;19923;-53
2021/08/26 09:51:31;;;;;;;;;;;;;;;18.15;75.29;101449.69;5092170;28;20379;-54
2021/08/26 09:53:58;;;;;;;;;;;;;;;18.21;74.71;101441.97;5073767;28;19928;-53
2021/08/26 09:56:24;;;;;;;;;;;;;;;18.18;74.42;101452.06;5074427;28;19931;-53
2021/08/26 09:58:52;;;;;;;;;;;;;;;18.13;75.61;101459.63;5061925;28;19924;-54
2021/08/26 10:01:20;;;;;;;;;;;;;;;17.77;76.67;101456.50;5082616;28;19924;-48
2021/08/26 10:03:48;;;;;;;;;;;;;;;17.93;76.73;101459.56;5056272;28;20364;-48
2021/08/26 10:06:15;;;;;;;;;;;;;;;17.58;77.21;101464.22;5078823;28;19928;-49
2021/08/26 10:08:43;;;;;;;;;;;;;;;17.69;78.59;101465.97;5041923;28;19935;-47
2021/08/26 10:11:10;;;;;;;;;;;;;;;17.68;78.30;101469.63;5058365;28;19924;-53
2021/08/26 10:13:37;;;;;;;;;;;;;;;17.59;79.19;101475.72;5058311;28;19924;-53
2021/08/26 10:16:03;;;;;;;;;;;;;;;17.58;78.98;101477.50;5078329;28;19960;-54
2021/08/26 10:18:30;;;;;;;;;;;;;;;17.72;80.22;101470.19;5067204;28;20458;-54
2021/08/26 10:20:57;;;;;;;;;;;;;;;17.77;80.30;101472.47;5087510;28;19932;-54
2021/08/26 10:23:24;;;;;;;;;;;;;;;17.83;78.78;101474.56;5062721;28;19939;-53
2021/08/26 10:25:51;;;;;;;;;;;;;;;17.76;80.22;101481.41;5058372;28;19925;-53
2021/08/26 10:28:17;;;;;;;;;;;;;;;17.90;78.79;101470.41;5089051;28;19932;-52
2021/08/26 10:30:44;;;;;;;;;;;;;;;17.97;77.45;101471.63;5058876;28;20372;-51
2021/08/26 10:33:11;;;;;;;;;;;;;;;18.18;75.96;101468.06;5090095;28;19931;-52
2021/08/26 10:36:04;;;;;;;;;;;;;;;18.37;77.04;101473.44;5064413;28;19936;-50
2021/08/26 10:38:34;;;;;;;;;;;;;;;18.72;75.22;101463.28;5088031;28;19932;-44
2021/08/26 10:41:19;;;;;;;;;;;;;;;18.95;73.50;101469.22;5075381;28;19925;-45
2021/08/26 10:44:05;;;;;;;;;;;;;;;19.15;73.14;101467.38;5055817;28;20295;-45
2021/08/26 10:46:49;;;;;;;;;;;;;;;19.15;73.04;101467.38;5065529;28;19969;-47
2021/08/26 10:49:16;;;;;;;;;;;;;;;19.18;70.70;101471.59;5090709;28;19934;-49
2021/08/26 10:51:43;;;;;;;;;;;;;;;19.51;72.20;101470.28;5089242;28;20377;-47
2021/08/26 10:54:36;;;;;;;;;;;;;;;19.67;69.72;101463.50;5090300;28;19924;-48
2021/08/26 10:57:22;;;;;;;;;;;;;;;19.71;69.05;101460.41;5083833;28;19933;-51
2021/08/26 10:59:48;;;;;;;;;;;;;;;19.86;68.47;101466.13;5074048;28;19925;-49
2021/08/26 11:02:41;;;;;;;;;;;;;;;20.18;67.33;101459.56;5041323;28;19978;-49
2021/08/26 11:05:27;;;;;;;;;;;;;;;20.07;65.26;101452.59;5072638;28;19970;-51
2021/08/26 11:07:53;;;;;;;;;;;;;;;19.73;65.84;101462.94;5075374;28;19924;-46
2021/08/26 11:10:29;;;;;;;;;;;;;;;20.21;68.21;101451.25;5057416;28;19924;-50
2021/08/26 11:13:15;;;;;;;;;;;;;;;21.03;64.43;101461.13;5075151;28;19924;-47
2021/08/26 11:15:41;;;;;;;;;;;;;;;21.08;62.46;101457.00;5075018;28;19924;-49
2021/08/26 11:18:30;;;;;;;;;;;;;;;20.96;63.94;101452.06;5074730;28;19960;-46
2021/08/26 11:20:57;;;;;;;;;;;;;;;20.98;63.26;101450.88;5074866;28;19990;-49
2021/08/26 11:23:53;;;;;;;;;;;;;;;20.91;62.29;101452.50;5075006;28;19974;-52
2021/08/26 11:26:38;;;;;;;;;;;;;;;21.16;60.72;101448.22;5061912;28;19925;-48
2021/08/26 11:29:20;;;;;;;;;;;;;;;21.87;62.19;101446.34;5075088;28;19925;-50
2021/08/26 11:31:52;;;;;;;;;;;;;;;22.31;58.77;101437.31;5057110;28;19925;-47
2021/08/26 11:34:19;;;;;;;;;;;;;;;22.58;58.18;101443.47;5074846;28;20371;-51
2021/08/26 11:37:00;;;;;;;;;;;;;;;22.34;57.68;101445.06;5074590;28;19951;-51
2021/08/26 11:39:28;;;;;;;;;;;;;;;21.43;59.28;101443.72;5074559;28;19939;-51
2021/08/26 11:41:58;;;;;;;;;;;;;;;21.35;61.65;101449.88;5057332;28;20018;-47
2021/08/26 11:44:27;;;;;;;;;;;;;;;21.22;60.63;101449.44;5074630;28;19955;-49
2021/08/26 11:46:53;;;;;;;;;;;;;;;21.17;60.34;101454.41;5056991;28;19925;-49
2021/08/26 11:49:26;;;;;;;;;;;;;;;21.22;59.79;101452.09;5056485;28;19931;-50
2021/08/26 11:51:53;;;;;;;;;;;;;;;21.05;59.90;101445.75;5056348;28;20391;-48
2021/08/26 11:54:20;;;;;;;;;;;;;;;21.30;59.44;101449.50;5056556;28;19928;-49
2021/08/26 11:56:54;;;;;;;;;;;;;;;21.45;60.30;101447.09;5073964;28;19924;-49
2021/08/26 11:59:22;;;;;;;;;;;;;;;21.94;59.78;101442.03;5074502;28;19931;-50
2021/08/26 12:01:48;;;;;;;;;;;;;;;22.16;57.15;101437.09;5056431;28;19924;-50
2021/08/26 12:04:15;;;;;;;;;;;;;;;22.21;56.60;101434.78;5074076;28;19929;-46
2021/08/26 12:06:48;;;;;;;;;;;;;;;22.29;55.87;101436.63;5074177;28;20019;-49
2021/08/26 12:09:15;;;;;;;;;;;;;;;22.71;55.14;101438.44;5074034;28;19942;-50
2021/08/26 12:11:41;;;;;;;;;;;;;;;22.90;55.45;101436.44;5073920;28;19924;-47
2021/08/26 12:14:09;;;;;;;;;;;;;;;23.21;55.60;101435.81;5073812;28;19928;-47
2021/08/26 12:16:36;;;;;;;;;;;;;;;22.99;54.97;101430.09;5056132;28;19928;-46
2021/08/26 12:19:03;;;;;;;;;;;;;;;23.03;55.43;101423.38;5073719;28;19924;-47
2021/08/26 12:21:30;;;;;;;;;;;;;;;22.45;55.51;101422.47;5073812;28;19924;-47
2021/08/26 12:23:56;;;;;;;;;;;;;;;22.43;56.46;101419.97;5039122;28;19924;-47
2021/08/26 12:26:23;;;;;;;;;;;;;;;22.15;56.60;101426.56;5056064;28;19925;-55
2021/08/26 12:28:55;;;;;;;;;;;;;;;22.27;55.83;101425.25;5072751;28;19970;-54
2021/08/26 12:31:22;;;;;;;;;;;;;;;22.58;56.74;101424.69;5056003;28;19982;-55
2021/08/26 12:33:55;;;;;;;;;;;;;;;22.30;55.13;101422.25;5073425;28;19925;-55
2021/08/26 12:36:22;;;;;;;;;;;;;;;22.49;55.37;101423.00;5056090;28;20368;-54
2021/08/26 12:39:02;;;;;;;;;;;;;;;22.37;54.67;101425.13;5055568;28;19928;-52
2021/08/26 12:41:29;;;;;;;;;;;;;;;22.54;54.14;101428.72;5073411;28;19924;-54
2021/08/26 12:43:57;;;;;;;;;;;;;;;22.36;54.38;101429.66;5073357;28;19963;-52